<?xml version="1.0" encoding="UTF-8" standalone="no" ?>
<gpx xmlns="http://www.topografix.com/GPX/1/1" xmlns:xsi="http://www.w3.org/2001/XMLSchema-instance" xsi:schemaLocation="http://www.topografix.com/GPX/1/1 http://www.topografix.com/GPX/1/1/gpx.xsd" version="1.1" creator="VisuGPX - https://www.visugpx.com">
  <metadata>
    <name>Ronfegerai 25</name>
  </metadata>
  <trk>
    <name><![CDATA[Ronfegerai 25_1]]></name>
    <trkseg>
      <trkpt lat="48.74798" lon="-0.57224">
        <ele>214</ele>
        <time>1989-12-31T00:00:00Z</time>
      </trkpt>
      <trkpt lat="48.74804" lon="-0.57214">
        <ele>215.4</ele>
        <time>1989-12-31T00:00:01Z</time>
      </trkpt>
      <trkpt lat="48.74774" lon="-0.57186">
        <ele>213.6</ele>
        <time>1989-12-31T00:00:09Z</time>
      </trkpt>
      <trkpt lat="48.74834" lon="-0.57036">
        <ele>219.4</ele>
        <time>1989-12-31T00:00:33Z</time>
      </trkpt>
      <trkpt lat="48.7486" lon="-0.57012">
        <ele>219.4</ele>
        <time>1989-12-31T00:00:39Z</time>
      </trkpt>
      <trkpt lat="48.75" lon="-0.57103">
        <ele>220.2</ele>
        <time>1989-12-31T00:01:11Z</time>
      </trkpt>
      <trkpt lat="48.75033" lon="-0.57086">
        <ele>221.8</ele>
        <time>1989-12-31T00:01:18Z</time>
      </trkpt>
      <trkpt lat="48.75075" lon="-0.57155">
        <ele>218.8</ele>
        <time>1989-12-31T00:01:31Z</time>
      </trkpt>
      <trkpt lat="48.75406" lon="-0.57348">
        <ele>217</ele>
        <time>1989-12-31T00:02:44Z</time>
      </trkpt>
      <trkpt lat="48.75444" lon="-0.5726">
        <ele>215.4</ele>
        <time>1989-12-31T00:02:59Z</time>
      </trkpt>
      <trkpt lat="48.75491" lon="-0.5729">
        <ele>217.8</ele>
        <time>1989-12-31T00:03:09Z</time>
      </trkpt>
      <trkpt lat="48.75701" lon="-0.5751">
        <ele>219.4</ele>
        <time>1989-12-31T00:04:02Z</time>
      </trkpt>
      <trkpt lat="48.75731" lon="-0.57542">
        <ele>218.8</ele>
        <time>1989-12-31T00:04:10Z</time>
      </trkpt>
      <trkpt lat="48.75956" lon="-0.56832">
        <ele>235.2</ele>
        <time>1989-12-31T00:05:58Z</time>
      </trkpt>
      <trkpt lat="48.7609" lon="-0.56866">
        <ele>234.6</ele>
        <time>1989-12-31T00:06:26Z</time>
      </trkpt>
      <trkpt lat="48.76193" lon="-0.56911">
        <ele>233.8</ele>
        <time>1989-12-31T00:06:48Z</time>
      </trkpt>
      <trkpt lat="48.76257" lon="-0.5699">
        <ele>238</ele>
        <time>1989-12-31T00:07:05Z</time>
      </trkpt>
      <trkpt lat="48.76321" lon="-0.57037">
        <ele>235.2</ele>
        <time>1989-12-31T00:07:20Z</time>
      </trkpt>
      <trkpt lat="48.76336" lon="-0.5703">
        <ele>235.6</ele>
        <time>1989-12-31T00:07:23Z</time>
      </trkpt>
      <trkpt lat="48.76389" lon="-0.56375">
        <ele>255.8</ele>
        <time>1989-12-31T00:08:53Z</time>
      </trkpt>
      <trkpt lat="48.76404" lon="-0.56246">
        <ele>254.4</ele>
        <time>1989-12-31T00:09:11Z</time>
      </trkpt>
      <trkpt lat="48.76398" lon="-0.56188">
        <ele>253.4</ele>
        <time>1989-12-31T00:09:19Z</time>
      </trkpt>
      <trkpt lat="48.76298" lon="-0.55896">
        <ele>263.6</ele>
        <time>1989-12-31T00:10:04Z</time>
      </trkpt>
      <trkpt lat="48.76341" lon="-0.55713">
        <ele>275</ele>
        <time>1989-12-31T00:10:31Z</time>
      </trkpt>
      <trkpt lat="48.76347" lon="-0.55616">
        <ele>279.8</ele>
        <time>1989-12-31T00:10:44Z</time>
      </trkpt>
      <trkpt lat="48.76333" lon="-0.55544">
        <ele>286.6</ele>
        <time>1989-12-31T00:10:55Z</time>
      </trkpt>
      <trkpt lat="48.76186" lon="-0.5498">
        <ele>274.6</ele>
        <time>1989-12-31T00:12:18Z</time>
      </trkpt>
      <trkpt lat="48.76172" lon="-0.54413">
        <ele>288</ele>
        <time>1989-12-31T00:13:35Z</time>
      </trkpt>
      <trkpt lat="48.76174" lon="-0.54395">
        <ele>288</ele>
        <time>1989-12-31T00:13:38Z</time>
      </trkpt>
      <trkpt lat="48.76531" lon="-0.54186">
        <ele>280.8</ele>
        <time>1989-12-31T00:14:57Z</time>
      </trkpt>
      <trkpt lat="48.76542" lon="-0.54157">
        <ele>282.8</ele>
        <time>1989-12-31T00:15:02Z</time>
      </trkpt>
      <trkpt lat="48.7654" lon="-0.54186">
        <ele>280.8</ele>
        <time>1989-12-31T00:15:06Z</time>
      </trkpt>
      <trkpt lat="48.76501" lon="-0.54123">
        <ele>285.2</ele>
        <time>1989-12-31T00:15:18Z</time>
      </trkpt>
      <trkpt lat="48.76337" lon="-0.53879">
        <ele>279.8</ele>
        <time>1989-12-31T00:16:05Z</time>
      </trkpt>
      <trkpt lat="48.76266" lon="-0.53734">
        <ele>269.8</ele>
        <time>1989-12-31T00:16:30Z</time>
      </trkpt>
      <trkpt lat="48.76468" lon="-0.53277">
        <ele>264.4</ele>
        <time>1989-12-31T00:17:45Z</time>
      </trkpt>
      <trkpt lat="48.76496" lon="-0.53186">
        <ele>262</ele>
        <time>1989-12-31T00:17:59Z</time>
      </trkpt>
      <trkpt lat="48.76498" lon="-0.52931">
        <ele>260.6</ele>
        <time>1989-12-31T00:18:34Z</time>
      </trkpt>
      <trkpt lat="48.76472" lon="-0.52788">
        <ele>261.2</ele>
        <time>1989-12-31T00:18:54Z</time>
      </trkpt>
      <trkpt lat="48.76452" lon="-0.52668">
        <ele>260.6</ele>
        <time>1989-12-31T00:19:11Z</time>
      </trkpt>
      <trkpt lat="48.76421" lon="-0.52497">
        <ele>258.8</ele>
        <time>1989-12-31T00:19:35Z</time>
      </trkpt>
      <trkpt lat="48.76405" lon="-0.52389">
        <ele>255.8</ele>
        <time>1989-12-31T00:19:51Z</time>
      </trkpt>
      <trkpt lat="48.76129" lon="-0.52572">
        <ele>254.8</ele>
        <time>1989-12-31T00:20:53Z</time>
      </trkpt>
      <trkpt lat="48.76001" lon="-0.52701">
        <ele>250</ele>
        <time>1989-12-31T00:21:25Z</time>
      </trkpt>
      <trkpt lat="48.75963" lon="-0.52771">
        <ele>255.4</ele>
        <time>1989-12-31T00:21:38Z</time>
      </trkpt>
      <trkpt lat="48.75816" lon="-0.52687">
        <ele>258.8</ele>
        <time>1989-12-31T00:22:10Z</time>
      </trkpt>
      <trkpt lat="48.75798" lon="-0.52634">
        <ele>252.4</ele>
        <time>1989-12-31T00:22:18Z</time>
      </trkpt>
      <trkpt lat="48.75712" lon="-0.52496">
        <ele>259.2</ele>
        <time>1989-12-31T00:22:44Z</time>
      </trkpt>
      <trkpt lat="48.75551" lon="-0.52372">
        <ele>272.2</ele>
        <time>1989-12-31T00:23:22Z</time>
      </trkpt>
      <trkpt lat="48.75481" lon="-0.52324">
        <ele>270.2</ele>
        <time>1989-12-31T00:23:38Z</time>
      </trkpt>
      <trkpt lat="48.75458" lon="-0.52259">
        <ele>269.8</ele>
        <time>1989-12-31T00:23:48Z</time>
      </trkpt>
      <trkpt lat="48.75463" lon="-0.5211">
        <ele>269.4</ele>
        <time>1989-12-31T00:24:08Z</time>
      </trkpt>
      <trkpt lat="48.75457" lon="-0.52059">
        <ele>268.8</ele>
        <time>1989-12-31T00:24:15Z</time>
      </trkpt>
      <trkpt lat="48.75368" lon="-0.51703">
        <ele>266</ele>
        <time>1989-12-31T00:25:07Z</time>
      </trkpt>
      <trkpt lat="48.75313" lon="-0.51506">
        <ele>262</ele>
        <time>1989-12-31T00:25:37Z</time>
      </trkpt>
      <trkpt lat="48.75275" lon="-0.51115">
        <ele>267</ele>
        <time>1989-12-31T00:26:31Z</time>
      </trkpt>
      <trkpt lat="48.752" lon="-0.5083">
        <ele>269.4</ele>
        <time>1989-12-31T00:27:13Z</time>
      </trkpt>
      <trkpt lat="48.75206" lon="-0.50757">
        <ele>269.8</ele>
        <time>1989-12-31T00:27:23Z</time>
      </trkpt>
      <trkpt lat="48.75224" lon="-0.50698">
        <ele>269.4</ele>
        <time>1989-12-31T00:27:32Z</time>
      </trkpt>
      <trkpt lat="48.75281" lon="-0.506">
        <ele>263</ele>
        <time>1989-12-31T00:27:50Z</time>
      </trkpt>
      <trkpt lat="48.75373" lon="-0.50424">
        <ele>248.2</ele>
        <time>1989-12-31T00:28:20Z</time>
      </trkpt>
      <trkpt lat="48.754" lon="-0.50345">
        <ele>244.4</ele>
        <time>1989-12-31T00:28:33Z</time>
      </trkpt>
      <trkpt lat="48.75405" lon="-0.50231">
        <ele>243.8</ele>
        <time>1989-12-31T00:28:48Z</time>
      </trkpt>
      <trkpt lat="48.75369" lon="-0.50079">
        <ele>246.8</ele>
        <time>1989-12-31T00:29:10Z</time>
      </trkpt>
      <trkpt lat="48.75337" lon="-0.49994">
        <ele>245.2</ele>
        <time>1989-12-31T00:29:24Z</time>
      </trkpt>
      <trkpt lat="48.75352" lon="-0.49891">
        <ele>244.8</ele>
        <time>1989-12-31T00:29:38Z</time>
      </trkpt>
      <trkpt lat="48.75368" lon="-0.49858">
        <ele>243.8</ele>
        <time>1989-12-31T00:29:44Z</time>
      </trkpt>
      <trkpt lat="48.75488" lon="-0.49718">
        <ele>254</ele>
        <time>1989-12-31T00:30:15Z</time>
      </trkpt>
      <trkpt lat="48.755" lon="-0.49704">
        <ele>254.4</ele>
        <time>1989-12-31T00:30:18Z</time>
      </trkpt>
      <trkpt lat="48.75525" lon="-0.4962">
        <ele>261.2</ele>
        <time>1989-12-31T00:30:31Z</time>
      </trkpt>
      <trkpt lat="48.75523" lon="-0.49537">
        <ele>265.4</ele>
        <time>1989-12-31T00:30:42Z</time>
      </trkpt>
      <trkpt lat="48.75547" lon="-0.49518">
        <ele>264</ele>
        <time>1989-12-31T00:30:48Z</time>
      </trkpt>
      <trkpt lat="48.75527" lon="-0.49451">
        <ele>264.4</ele>
        <time>1989-12-31T00:30:58Z</time>
      </trkpt>
      <trkpt lat="48.7553" lon="-0.49433">
        <ele>261.6</ele>
        <time>1989-12-31T00:31:01Z</time>
      </trkpt>
      <trkpt lat="48.75548" lon="-0.49416">
        <ele>261.2</ele>
        <time>1989-12-31T00:31:05Z</time>
      </trkpt>
      <trkpt lat="48.75601" lon="-0.49331">
        <ele>250</ele>
        <time>1989-12-31T00:31:21Z</time>
      </trkpt>
      <trkpt lat="48.75607" lon="-0.49277">
        <ele>247.6</ele>
        <time>1989-12-31T00:31:29Z</time>
      </trkpt>
      <trkpt lat="48.7563" lon="-0.49233">
        <ele>245.2</ele>
        <time>1989-12-31T00:31:36Z</time>
      </trkpt>
      <trkpt lat="48.7566" lon="-0.4922">
        <ele>243.4</ele>
        <time>1989-12-31T00:31:43Z</time>
      </trkpt>
      <trkpt lat="48.75703" lon="-0.49283">
        <ele>243.4</ele>
        <time>1989-12-31T00:31:55Z</time>
      </trkpt>
      <trkpt lat="48.75779" lon="-0.49321">
        <ele>241</ele>
        <time>1989-12-31T00:32:12Z</time>
      </trkpt>
      <trkpt lat="48.75818" lon="-0.4937">
        <ele>238</ele>
        <time>1989-12-31T00:32:22Z</time>
      </trkpt>
      <trkpt lat="48.75861" lon="-0.49495">
        <ele>237.2</ele>
        <time>1989-12-31T00:32:41Z</time>
      </trkpt>
      <trkpt lat="48.759" lon="-0.49525">
        <ele>237.2</ele>
        <time>1989-12-31T00:32:51Z</time>
      </trkpt>
      <trkpt lat="48.75933" lon="-0.49544">
        <ele>236.2</ele>
        <time>1989-12-31T00:32:58Z</time>
      </trkpt>
      <trkpt lat="48.75976" lon="-0.49695">
        <ele>235.6</ele>
        <time>1989-12-31T00:33:21Z</time>
      </trkpt>
      <trkpt lat="48.76082" lon="-0.49694">
        <ele>238.6</ele>
        <time>1989-12-31T00:33:42Z</time>
      </trkpt>
      <trkpt lat="48.76134" lon="-0.4967">
        <ele>239</ele>
        <time>1989-12-31T00:33:54Z</time>
      </trkpt>
      <trkpt lat="48.76201" lon="-0.4955">
        <ele>237.2</ele>
        <time>1989-12-31T00:34:15Z</time>
      </trkpt>
      <trkpt lat="48.76232" lon="-0.49528">
        <ele>235.6</ele>
        <time>1989-12-31T00:34:22Z</time>
      </trkpt>
      <trkpt lat="48.76275" lon="-0.49542">
        <ele>234.2</ele>
        <time>1989-12-31T00:34:31Z</time>
      </trkpt>
      <trkpt lat="48.76545" lon="-0.49378">
        <ele>240</ele>
        <time>1989-12-31T00:35:32Z</time>
      </trkpt>
      <trkpt lat="48.76881" lon="-0.49173">
        <ele>228.4</ele>
        <time>1989-12-31T00:36:47Z</time>
      </trkpt>
      <trkpt lat="48.76925" lon="-0.49171">
        <ele>230.8</ele>
        <time>1989-12-31T00:36:56Z</time>
      </trkpt>
      <trkpt lat="48.77034" lon="-0.49188">
        <ele>224.2</ele>
        <time>1989-12-31T00:37:19Z</time>
      </trkpt>
      <trkpt lat="48.77065" lon="-0.49158">
        <ele>226</ele>
        <time>1989-12-31T00:37:26Z</time>
      </trkpt>
      <trkpt lat="48.77567" lon="-0.49169">
        <ele>223.6</ele>
        <time>1989-12-31T00:39:11Z</time>
      </trkpt>
      <trkpt lat="48.7767" lon="-0.49221">
        <ele>223.6</ele>
        <time>1989-12-31T00:39:33Z</time>
      </trkpt>
      <trkpt lat="48.77759" lon="-0.49214">
        <ele>224.6</ele>
        <time>1989-12-31T00:39:52Z</time>
      </trkpt>
      <trkpt lat="48.77787" lon="-0.49211">
        <ele>224.2</ele>
        <time>1989-12-31T00:39:57Z</time>
      </trkpt>
      <trkpt lat="48.77849" lon="-0.48903">
        <ele>226.6</ele>
        <time>1989-12-31T00:40:41Z</time>
      </trkpt>
      <trkpt lat="48.77904" lon="-0.48501">
        <ele>226.6</ele>
        <time>1989-12-31T00:41:38Z</time>
      </trkpt>
      <trkpt lat="48.77943" lon="-0.48352">
        <ele>226</ele>
        <time>1989-12-31T00:42:00Z</time>
      </trkpt>
      <trkpt lat="48.78055" lon="-0.48146">
        <ele>218.8</ele>
        <time>1989-12-31T00:42:36Z</time>
      </trkpt>
      <trkpt lat="48.78203" lon="-0.47552">
        <ele>212.6</ele>
        <time>1989-12-31T00:44:03Z</time>
      </trkpt>
      <trkpt lat="48.78245" lon="-0.47151">
        <ele>209.2</ele>
        <time>1989-12-31T00:44:58Z</time>
      </trkpt>
      <trkpt lat="48.77972" lon="-0.47456">
        <ele>214.6</ele>
        <time>1989-12-31T00:46:09Z</time>
      </trkpt>
      <trkpt lat="48.77915" lon="-0.47497">
        <ele>212.2</ele>
        <time>1989-12-31T00:46:22Z</time>
      </trkpt>
      <trkpt lat="48.77869" lon="-0.47495">
        <ele>209.2</ele>
        <time>1989-12-31T00:46:31Z</time>
      </trkpt>
      <trkpt lat="48.77724" lon="-0.47681">
        <ele>214.6</ele>
        <time>1989-12-31T00:47:11Z</time>
      </trkpt>
      <trkpt lat="48.77636" lon="-0.47741">
        <ele>218.4</ele>
        <time>1989-12-31T00:47:31Z</time>
      </trkpt>
      <trkpt lat="48.77566" lon="-0.47812">
        <ele>221.2</ele>
        <time>1989-12-31T00:47:48Z</time>
      </trkpt>
      <trkpt lat="48.77532" lon="-0.47861">
        <ele>225</ele>
        <time>1989-12-31T00:47:58Z</time>
      </trkpt>
      <trkpt lat="48.77518" lon="-0.47988">
        <ele>229</ele>
        <time>1989-12-31T00:48:16Z</time>
      </trkpt>
      <trkpt lat="48.77357" lon="-0.48015">
        <ele>229.8</ele>
        <time>1989-12-31T00:48:49Z</time>
      </trkpt>
      <trkpt lat="48.77262" lon="-0.4811">
        <ele>235.2</ele>
        <time>1989-12-31T00:49:13Z</time>
      </trkpt>
      <trkpt lat="48.77053" lon="-0.48241">
        <ele>233.8</ele>
        <time>1989-12-31T00:50:00Z</time>
      </trkpt>
      <trkpt lat="48.76975" lon="-0.48416">
        <ele>235.6</ele>
        <time>1989-12-31T00:50:29Z</time>
      </trkpt>
      <trkpt lat="48.76928" lon="-0.48486">
        <ele>238.6</ele>
        <time>1989-12-31T00:50:42Z</time>
      </trkpt>
      <trkpt lat="48.7662" lon="-0.48554">
        <ele>247.2</ele>
        <time>1989-12-31T00:51:47Z</time>
      </trkpt>
      <trkpt lat="48.76583" lon="-0.48539">
        <ele>248.2</ele>
        <time>1989-12-31T00:51:55Z</time>
      </trkpt>
      <trkpt lat="48.76373" lon="-0.48456">
        <ele>246.8</ele>
        <time>1989-12-31T00:52:40Z</time>
      </trkpt>
      <trkpt lat="48.76042" lon="-0.4852">
        <ele>252</ele>
        <time>1989-12-31T00:53:49Z</time>
      </trkpt>
      <trkpt lat="48.7596" lon="-0.48556">
        <ele>252</ele>
        <time>1989-12-31T00:54:07Z</time>
      </trkpt>
      <trkpt lat="48.75681" lon="-0.48788">
        <ele>249.6</ele>
        <time>1989-12-31T00:55:13Z</time>
      </trkpt>
      <trkpt lat="48.75582" lon="-0.48793">
        <ele>250</ele>
        <time>1989-12-31T00:55:33Z</time>
      </trkpt>
      <trkpt lat="48.75466" lon="-0.48991">
        <ele>251.6</ele>
        <time>1989-12-31T00:56:10Z</time>
      </trkpt>
      <trkpt lat="48.75399" lon="-0.49081">
        <ele>251.6</ele>
        <time>1989-12-31T00:56:28Z</time>
      </trkpt>
      <trkpt lat="48.75298" lon="-0.49212">
        <ele>249.6</ele>
        <time>1989-12-31T00:56:56Z</time>
      </trkpt>
      <trkpt lat="48.75329" lon="-0.49423">
        <ele>253.4</ele>
        <time>1989-12-31T00:57:25Z</time>
      </trkpt>
      <trkpt lat="48.75344" lon="-0.49475">
        <ele>253.4</ele>
        <time>1989-12-31T00:57:33Z</time>
      </trkpt>
      <trkpt lat="48.75383" lon="-0.49532">
        <ele>254.4</ele>
        <time>1989-12-31T00:57:44Z</time>
      </trkpt>
      <trkpt lat="48.75436" lon="-0.49579">
        <ele>254</ele>
        <time>1989-12-31T00:57:57Z</time>
      </trkpt>
      <trkpt lat="48.75461" lon="-0.49616">
        <ele>254.4</ele>
        <time>1989-12-31T00:58:04Z</time>
      </trkpt>
      <trkpt lat="48.75482" lon="-0.4965">
        <ele>254</ele>
        <time>1989-12-31T00:58:11Z</time>
      </trkpt>
      <trkpt lat="48.75501" lon="-0.49696">
        <ele>251.6</ele>
        <time>1989-12-31T00:58:18Z</time>
      </trkpt>
      <trkpt lat="48.75363" lon="-0.49867">
        <ele>238.6</ele>
        <time>1989-12-31T00:58:55Z</time>
      </trkpt>
      <trkpt lat="48.75339" lon="-0.49933">
        <ele>240</ele>
        <time>1989-12-31T00:59:06Z</time>
      </trkpt>
      <trkpt lat="48.75335" lon="-0.49993">
        <ele>241</ele>
        <time>1989-12-31T00:59:14Z</time>
      </trkpt>
      <trkpt lat="48.75386" lon="-0.5013">
        <ele>242</ele>
        <time>1989-12-31T00:59:35Z</time>
      </trkpt>
      <trkpt lat="48.75409" lon="-0.50242">
        <ele>242</ele>
        <time>1989-12-31T00:59:51Z</time>
      </trkpt>
      <trkpt lat="48.75402" lon="-0.50353">
        <ele>243.8</ele>
        <time>1989-12-31T01:00:07Z</time>
      </trkpt>
      <trkpt lat="48.75391" lon="-0.50399">
        <ele>244.4</ele>
        <time>1989-12-31T01:00:13Z</time>
      </trkpt>
      <trkpt lat="48.75286" lon="-0.50597">
        <ele>259.2</ele>
        <time>1989-12-31T01:00:48Z</time>
      </trkpt>
      <trkpt lat="48.75276" lon="-0.50622">
        <ele>260.6</ele>
        <time>1989-12-31T01:00:52Z</time>
      </trkpt>
      <trkpt lat="48.75258" lon="-0.50654">
        <ele>262</ele>
        <time>1989-12-31T01:00:58Z</time>
      </trkpt>
      <trkpt lat="48.75211" lon="-0.50755">
        <ele>264</ele>
        <time>1989-12-31T01:01:15Z</time>
      </trkpt>
      <trkpt lat="48.75201" lon="-0.50828">
        <ele>263.6</ele>
        <time>1989-12-31T01:01:25Z</time>
      </trkpt>
      <trkpt lat="48.75273" lon="-0.51116">
        <ele>261.2</ele>
        <time>1989-12-31T01:02:07Z</time>
      </trkpt>
      <trkpt lat="48.75312" lon="-0.51508">
        <ele>256.4</ele>
        <time>1989-12-31T01:03:01Z</time>
      </trkpt>
      <trkpt lat="48.75337" lon="-0.51587">
        <ele>259.2</ele>
        <time>1989-12-31T01:03:13Z</time>
      </trkpt>
      <trkpt lat="48.75286" lon="-0.51676">
        <ele>259.2</ele>
        <time>1989-12-31T01:03:30Z</time>
      </trkpt>
      <trkpt lat="48.75343" lon="-0.52041">
        <ele>263</ele>
        <time>1989-12-31T01:04:21Z</time>
      </trkpt>
      <trkpt lat="48.75489" lon="-0.5256">
        <ele>269.4</ele>
        <time>1989-12-31T01:05:38Z</time>
      </trkpt>
      <trkpt lat="48.75557" lon="-0.528">
        <ele>266.4</ele>
        <time>1989-12-31T01:06:14Z</time>
      </trkpt>
      <trkpt lat="48.75564" lon="-0.52886">
        <ele>266</ele>
        <time>1989-12-31T01:06:26Z</time>
      </trkpt>
      <trkpt lat="48.75547" lon="-0.53011">
        <ele>266</ele>
        <time>1989-12-31T01:06:43Z</time>
      </trkpt>
      <trkpt lat="48.75594" lon="-0.5311">
        <ele>271.8</ele>
        <time>1989-12-31T01:07:00Z</time>
      </trkpt>
      <trkpt lat="48.75585" lon="-0.53156">
        <ele>273.2</ele>
        <time>1989-12-31T01:07:07Z</time>
      </trkpt>
      <trkpt lat="48.75568" lon="-0.53215">
        <ele>273.6</ele>
        <time>1989-12-31T01:07:15Z</time>
      </trkpt>
      <trkpt lat="48.75549" lon="-0.53282">
        <ele>273.6</ele>
        <time>1989-12-31T01:07:25Z</time>
      </trkpt>
      <trkpt lat="48.75347" lon="-0.54051">
        <ele>258.2</ele>
        <time>1989-12-31T01:09:19Z</time>
      </trkpt>
      <trkpt lat="48.75283" lon="-0.54351">
        <ele>237.6</ele>
        <time>1989-12-31T01:10:02Z</time>
      </trkpt>
      <trkpt lat="48.75273" lon="-0.54442">
        <ele>231.4</ele>
        <time>1989-12-31T01:10:14Z</time>
      </trkpt>
      <trkpt lat="48.75301" lon="-0.54594">
        <ele>225.6</ele>
        <time>1989-12-31T01:10:36Z</time>
      </trkpt>
      <trkpt lat="48.75275" lon="-0.54669">
        <ele>227</ele>
        <time>1989-12-31T01:10:47Z</time>
      </trkpt>
      <trkpt lat="48.75173" lon="-0.54781">
        <ele>232.2</ele>
        <time>1989-12-31T01:11:14Z</time>
      </trkpt>
      <trkpt lat="48.75133" lon="-0.54842">
        <ele>232.8</ele>
        <time>1989-12-31T01:11:25Z</time>
      </trkpt>
      <trkpt lat="48.75103" lon="-0.55013">
        <ele>231.8</ele>
        <time>1989-12-31T01:11:50Z</time>
      </trkpt>
      <trkpt lat="48.75021" lon="-0.56667">
        <ele>210.2</ele>
        <time>1989-12-31T01:15:37Z</time>
      </trkpt>
      <trkpt lat="48.74875" lon="-0.56908">
        <ele>198.2</ele>
        <time>1989-12-31T01:16:22Z</time>
      </trkpt>
      <trkpt lat="48.74784" lon="-0.57207">
        <ele>189</ele>
        <time>1989-12-31T01:17:07Z</time>
      </trkpt>
      <trkpt lat="48.74803" lon="-0.57218">
        <ele>188.6</ele>
        <time>1989-12-31T01:17:11Z</time>
      </trkpt>
      <trkpt lat="48.74798" lon="-0.57216">
        <ele>186.6</ele>
        <time>1989-12-31T01:17:12Z</time>
      </trkpt>
    </trkseg>
  </trk>
</gpx>